sensor_id;sensor_type;location;lat;lon;timestamp;pressure;altitude;pressure_sealevel;temperature;humidity
79519;BME280;68968;60.034;30.654;2023-04-24T17:05:34;99892.88;;;24.79;36.65
79519;BME280;68968;60.034;30.654;2023-04-24T17:08:00;99899.91;;;24.28;37.14
79519;BME280;68968;60.034;30.654;2023-04-24T17:10:26;99902.66;;;23.91;37.22
79519;BME280;68968;60.034;30.654;2023-04-24T17:12:53;99905.69;;;23.64;37.77
79519;BME280;68968;60.034;30.654;2023-04-24T17:15:19;99908.28;;;23.47;38.13
79519;BME280;68968;60.034;30.654;2023-04-24T17:17:45;99902.91;;;23.28;38.34
79519;BME280;68968;60.034;30.654;2023-04-24T17:20:11;99905.66;;;23.27;38.22
79519;BME280;68968;60.034;30.654;2023-04-24T17:22:37;99904.44;;;23.34;38.88
79519;BME280;68968;60.034;30.654;2023-04-24T17:25:03;99909.84;;;23.51;38.72
79519;BME280;68968;60.034;30.654;2023-04-24T17:27:31;99906.00;;;23.58;38.79
79519;BME280;68968;60.034;30.654;2023-04-24T17:29:57;99910.31;;;23.61;37.86
79519;BME280;68968;60.034;30.654;2023-04-24T17:32:23;99924.00;;;23.53;37.96
79519;BME280;68968;60.034;30.654;2023-04-24T17:34:49;99908.88;;;23.33;38.34
79519;BME280;68968;60.034;30.654;2023-04-24T17:37:15;99933.69;;;23.37;38.42
79519;BME280;68968;60.034;30.654;2023-04-24T17:39:44;99931.44;;;23.47;38.54
79519;BME280;68968;60.034;30.654;2023-04-24T17:42:10;99924.94;;;23.52;38.62
79519;BME280;68968;60.034;30.654;2023-04-24T17:44:36;99922.44;;;23.49;38.40
79519;BME280;68968;60.034;30.654;2023-04-24T17:47:02;99924.16;;;23.50;38.86
79519;BME280;68968;60.034;30.654;2023-04-24T17:49:30;99924.78;;;23.55;38.55
79519;BME280;68968;60.034;30.654;2023-04-24T17:51:57;99925.41;;;23.62;38.24
79519;BME280;68968;60.034;30.654;2023-04-24T17:54:23;99931.81;;;23.58;39.13
79519;BME280;68968;60.034;30.654;2023-04-24T17:56:49;99934.50;;;23.58;38.73
79519;BME280;68968;60.034;30.654;2023-04-24T17:59:18;99939.84;;;23.58;38.45
79519;BME280;68968;60.034;30.654;2023-04-24T18:01:44;99942.63;;;23.55;38.75
79519;BME280;68968;60.034;30.654;2023-04-24T18:04:13;99941.91;;;23.51;39.05
79519;BME280;68968;60.034;30.654;2023-04-24T18:06:38;99933.81;;;23.53;38.89
79519;BME280;68968;60.034;30.654;2023-04-24T18:09:04;99937.38;;;23.53;38.93
79519;BME280;68968;60.034;30.654;2023-04-24T18:11:30;99939.16;;;23.53;38.99
79519;BME280;68968;60.034;30.654;2023-04-24T18:13:58;99940.97;;;23.52;38.85
79519;BME280;68968;60.034;30.654;2023-04-24T18:16:27;99948.44;;;23.46;39.02
79519;BME280;68968;60.034;30.654;2023-04-24T18:18:52;99946.97;;;23.38;39.16
79519;BME280;68968;60.034;30.654;2023-04-24T18:21:18;99947.91;;;23.37;39.28
79519;BME280;68968;60.034;30.654;2023-04-24T18:23:46;99945.38;;;23.34;39.19
79519;BME280;68968;60.034;30.654;2023-04-24T18:26:12;99940.06;;;23.33;39.14
79519;BME280;68968;60.034;30.654;2023-04-24T18:28:42;99935.56;;;23.35;39.25
79519;BME280;68968;60.034;30.654;2023-04-24T18:31:08;99936.44;;;23.35;39.53
79519;BME280;68968;60.034;30.654;2023-04-24T18:33:34;99930.78;;;23.41;39.30
79519;BME280;68968;60.034;30.654;2023-04-24T18:36:00;99938.47;;;23.49;39.00
79519;BME280;68968;60.034;30.654;2023-04-24T18:38:28;99924.66;;;23.39;39.15
79519;BME280;68968;60.034;30.654;2023-04-24T18:40:54;99941.13;;;23.49;39.49
79519;BME280;68968;60.034;30.654;2023-04-24T18:43:20;99934.91;;;23.49;39.38
